Bookmark and Share
Track history (hours):
 

Nissho Maru No7

Last reported at 2014-Apr-16 10:29 UTC. Time now 2014-Apr-16 10:40 UTC.
Position N 35°04' E 140°17'.

Length 71 m; draft 4.1 m.

Type: Cargo ship. MMSI: 431200355.

NotesDate/timePositionNaut miles runAvg speedWind from/ knotsBaromVisibWave heightAir tempDewpointWater temp
2014-Apr-16 10:29N 35°04' E 140°17'17 8.5
2014-Apr-16 08:30N 35°16' E 140°31'10 9.8
2014-Apr-16 07:29N 35°24' E 140°39'  
2014-Apr-08 09:33N 34°37' E 134°57'1010.1
2014-Apr-08 08:33N 34°37' E 135°09'4 3.9
2014-Apr-08 07:31N 34°41' E 135°12'0 0.1
2014-Apr-08 06:31N 34°40' E 135°12'1 1.0
2014-Apr-08 05:28N 34°40' E 135°12'0 0.0
2014-Apr-08 04:29N 34°40' E 135°12'7 7.6
2014-Apr-08 03:33N 34°37' E 135°19'3 2.8
2014-Apr-08 02:33N 34°36' E 135°23'4 0.5
2014-Apr-07 19:04N 34°35' E 135°27'0 0.0
2014-Apr-07 16:22N 34°35' E 135°27'0 0.0
2014-Apr-07 15:22N 34°35' E 135°27'0 0.0
2014-Apr-07 14:28N 34°35' E 135°27'0 0.0
2014-Apr-07 13:28N 34°35' E 135°27'0 0.0
2014-Apr-07 12:28N 34°35' E 135°27'0 0.0
2014-Apr-07 11:28N 34°35' E 135°27'0 0.0
2014-Apr-07 10:10N 34°35' E 135°27'0 0.1
2014-Apr-07 09:28N 34°35' E 135°27'3 3.8
2014-Apr-07 08:33N 34°33' E 135°23'2 0.2
2014-Apr-06 21:33N 34°31' E 135°24'4 3.5
2014-Apr-06 20:33N 34°32' E 135°21'5 4.7
2014-Apr-06 19:33N 34°34' E 135°15'3 3.1
2014-Apr-06 18:33N 34°34' E 135°12'9 9.2
2014-Apr-06 17:33N 34°37' E 135°01'  

Dump ship's entire track history

sailing weather and tide predictions

Nissho Maru No7 — JH3472 — position and weather